Terminal Aerodrome Forecast
Issued by NWS Springfield, MO

Home | Current Version | Previous Version | Text Only | Print | Product List | Glossary On
Versions: 1 2 3 4 5 6 7 8 9 10 11 12 13 14 15
000
FTUS43 KSGF 261700
TAFSGF
TAF
KSGF 261720Z 2618/2718 22016G22KT P6SM FEW200
     FM270000 20011KT P6SM SKC
     FM270400 19010KT P6SM SCT120 WS017/25045KT PROB30 2707/2712 5SM
      -TSRA BR BKN070CB
     FM271300 29009KT P6SM SCT200=

USA.gov is the U.S. government's official web portal to all federal, state and local government web resources and services.